createdAt,value
2019-04-16T00:04:22.247Z,4.83
2019-04-16T00:09:34.030Z,4.27
2019-04-16T00:14:41.787Z,5.10
2019-04-16T00:19:45.419Z,5.43
2019-04-16T00:24:52.222Z,4.90
2019-04-16T00:29:55.976Z,5.40
2019-04-16T00:34:59.737Z,4.80
2019-04-16T00:40:03.525Z,5.60
2019-04-16T00:45:07.278Z,5.20
2019-04-16T00:50:11.032Z,4.90
2019-04-16T00:55:14.813Z,4.70
2019-04-16T01:00:18.488Z,4.80
2019-04-16T01:05:22.214Z,5.20
2019-04-16T01:10:25.902Z,5.03
2019-04-16T01:15:32.106Z,5.30
2019-04-16T01:20:35.179Z,5.77
2019-04-16T01:25:38.892Z,5.00
2019-04-16T01:31:07.906Z,5.30
2019-04-16T01:36:29.412Z,5.27
2019-04-16T01:41:33.150Z,4.97
2019-04-16T01:46:36.933Z,5.27
2019-04-16T01:51:40.650Z,5.30
2019-04-16T01:56:44.359Z,5.70
2019-04-16T02:01:48.037Z,4.50
2019-04-16T02:06:54.323Z,4.60
2019-04-16T02:11:57.315Z,5.00
2019-04-16T02:17:00.975Z,4.97
2019-04-16T02:22:04.677Z,4.47
2019-04-16T02:27:08.638Z,5.27
2019-04-16T02:32:12.367Z,4.50
2019-04-16T02:37:16.184Z,4.80
2019-04-16T02:42:19.925Z,4.90
2019-04-16T02:47:23.738Z,4.50
2019-04-16T02:52:51.033Z,4.73
2019-04-16T02:58:02.313Z,5.30
2019-04-16T03:03:13.249Z,4.60
2019-04-16T03:08:16.881Z,4.10
2019-04-16T03:13:23.357Z,4.60
2019-04-16T03:18:31.981Z,4.60
2019-04-16T03:23:37.542Z,4.50
2019-04-16T03:28:41.182Z,4.23
2019-04-16T03:33:50.489Z,5.03
2019-04-16T03:38:50.447Z,4.30
2019-04-16T03:43:54.129Z,4.73
2019-04-16T03:48:58.007Z,4.20
2019-04-16T03:54:04.781Z,4.63
2019-04-16T03:59:10.520Z,4.50
2019-04-16T04:04:12.519Z,4.27
2019-04-16T04:09:18.923Z,3.93
2019-04-16T04:14:23.475Z,3.73
2019-04-16T04:19:27.095Z,4.40
2019-04-16T04:24:32.141Z,4.30
2019-04-16T04:29:36.136Z,4.03
2019-04-16T04:34:39.839Z,4.73
2019-04-16T04:39:44.234Z,4.20
2019-04-16T04:44:49.913Z,4.43
2019-04-16T04:49:53.649Z,4.10
2019-04-16T04:54:57.575Z,4.20
2019-04-16T05:00:01.657Z,4.10
2019-04-16T05:05:25.821Z,4.77
2019-04-16T05:10:29.895Z,4.43
2019-04-16T05:15:33.706Z,3.50
2019-04-16T05:20:37.443Z,4.50
2019-04-16T05:25:41.166Z,4.20
2019-04-16T05:30:44.815Z,4.27
2019-04-16T05:35:48.609Z,4.57
2019-04-16T05:40:52.390Z,4.50
2019-04-16T05:45:56.287Z,4.30
2019-04-16T05:51:00.741Z,4.60
2019-04-16T05:56:11.892Z,4.90
2019-04-16T06:01:21.166Z,4.10
2019-04-16T06:06:24.985Z,4.77
2019-04-16T06:11:35.531Z,4.60
2019-04-16T06:16:56.777Z,4.60
2019-04-16T06:22:19.401Z,4.80
2019-04-16T06:27:48.122Z,4.60
2019-04-16T06:32:58.160Z,5.60
2019-04-16T06:38:09.000Z,5.07
2019-04-16T06:43:19.478Z,4.60
2019-04-16T06:48:28.504Z,4.47
2019-04-16T06:53:50.152Z,3.93
2019-04-16T06:58:58.787Z,4.17
2019-04-16T07:04:34.081Z,5.03
2019-04-16T07:09:56.735Z,4.53
2019-04-16T07:14:59.676Z,4.13
2019-04-16T07:20:04.839Z,4.57
2019-04-16T07:25:09.152Z,4.80
2019-04-16T07:30:28.228Z,4.47
2019-04-16T07:35:54.160Z,3.90
2019-04-16T07:41:17.165Z,4.20
2019-04-16T07:46:59.016Z,4.50
2019-04-16T07:52:27.940Z,5.13
2019-04-16T07:57:33.633Z,4.67
2019-04-16T08:02:37.390Z,4.70
2019-04-16T08:07:41.327Z,5.67
2019-04-16T08:12:49.622Z,6.37
2019-04-16T08:17:53.364Z,7.27
2019-04-16T08:23:01.063Z,8.60
2019-04-16T08:28:07.009Z,8.20
2019-04-16T08:33:11.480Z,7.20
2019-04-16T08:38:15.509Z,6.63
2019-04-16T08:43:19.291Z,8.23
2019-04-16T08:48:23.097Z,7.60
2019-04-16T08:53:26.889Z,9.17
2019-04-16T08:58:30.636Z,6.73
2019-04-16T09:03:34.475Z,5.93
2019-04-16T09:09:14.416Z,6.00
2019-04-16T09:14:16.847Z,7.00
2019-04-16T09:19:21.471Z,7.30
2019-04-16T09:24:48.772Z,6.67
2019-04-16T09:30:10.775Z,7.10
2019-04-16T09:35:23.245Z,5.93
2019-04-16T09:40:50.904Z,6.67
2019-04-16T09:45:54.678Z,6.13
2019-04-16T09:50:58.622Z,5.97
2019-04-16T09:56:23.392Z,5.30
2019-04-16T10:01:31.566Z,5.90
2019-04-16T10:06:35.488Z,5.10
2019-04-16T10:11:39.429Z,5.13
2019-04-16T10:16:43.222Z,5.03
2019-04-16T10:21:46.997Z,5.30
2019-04-16T10:26:53.913Z,4.90
2019-04-16T10:31:59.271Z,6.03
2019-04-16T10:37:03.055Z,4.80
2019-04-16T10:42:21.308Z,6.00
2019-04-16T10:47:52.349Z,6.17
2019-04-16T10:53:07.364Z,5.93
2019-04-16T10:58:19.754Z,7.20
2019-04-16T11:03:28.791Z,6.93
2019-04-16T11:08:33.108Z,10.57
2019-04-16T11:13:41.022Z,7.20
2019-04-16T11:18:45.432Z,4.90
2019-04-16T11:23:49.416Z,4.90
2019-04-16T11:28:53.394Z,3.93
2019-04-16T11:33:57.285Z,4.50
2019-04-16T11:39:01.241Z,4.20
2019-04-16T11:44:15.238Z,4.63
2019-04-16T11:49:10.866Z,4.30
2019-04-16T11:54:14.613Z,4.20
2019-04-16T11:59:18.873Z,4.40
2019-04-16T12:04:47.724Z,3.27
2019-04-16T12:10:02.444Z,4.57
2019-04-16T12:15:19.528Z,4.30
2019-04-16T12:20:43.213Z,3.50
2019-04-16T12:26:02.523Z,3.17
2019-04-16T12:31:16.078Z,3.37
2019-04-16T12:36:27.486Z,4.10
2019-04-16T12:41:42.248Z,3.70
2019-04-16T12:47:05.690Z,3.87
2019-04-16T12:52:35.847Z,3.33
2019-04-16T12:57:52.693Z,4.50
2019-04-16T13:03:17.785Z,3.20
2019-04-16T13:08:32.819Z,3.80
2019-04-16T13:13:54.580Z,4.33
2019-04-16T13:19:16.346Z,4.67
2019-04-16T13:24:40.606Z,3.97
2019-04-16T13:29:44.460Z,3.70
2019-04-16T13:34:48.403Z,4.30
2019-04-16T13:40:00.488Z,3.53
2019-04-16T13:45:21.739Z,4.50
2019-04-16T13:50:53.735Z,4.00
2019-04-16T13:56:25.852Z,5.10
2019-04-16T14:01:33.230Z,5.07
2019-04-16T14:06:37.491Z,4.40
2019-04-16T14:11:41.532Z,5.93
2019-04-16T14:16:46.604Z,5.10
2019-04-16T14:21:50.858Z,5.10
2019-04-16T14:26:54.743Z,7.03
2019-04-16T14:31:58.898Z,8.87
2019-04-16T14:37:03.782Z,12.37
2019-04-16T14:42:12.836Z,9.70
2019-04-16T14:47:17.399Z,8.30
2019-04-16T14:52:21.274Z,8.50
2019-04-16T14:57:25.350Z,6.97
2019-04-16T15:02:49.580Z,6.63
2019-04-16T15:08:01.284Z,7.47
2019-04-16T15:13:15.179Z,5.93
2019-04-16T15:18:34.465Z,5.50
2019-04-16T15:24:06.887Z,5.03
2019-04-16T15:29:16.949Z,5.80
2019-04-16T15:34:24.104Z,4.70
2019-04-16T15:39:35.281Z,4.60
2019-04-16T15:44:52.683Z,4.40
2019-04-16T15:50:00.280Z,4.93
2019-04-16T15:55:12.853Z,4.20
2019-04-16T16:00:44.520Z,4.60
2019-04-16T16:05:55.664Z,4.03
2019-04-16T16:11:01.247Z,4.60
2019-04-16T16:16:05.151Z,4.10
2019-04-16T16:21:09.309Z,4.87
2019-04-16T16:26:14.134Z,5.60
2019-04-16T16:31:18.227Z,5.17
2019-04-16T16:36:22.065Z,5.53
2019-04-16T16:41:26.153Z,5.17
2019-04-16T16:46:56.581Z,5.63
2019-04-16T16:52:11.515Z,5.60
2019-04-16T16:57:24.898Z,5.53
2019-04-16T17:02:35.924Z,5.50
2019-04-16T17:07:43.374Z,5.37
2019-04-16T17:12:47.207Z,4.90
2019-04-16T17:17:50.962Z,5.40
2019-04-16T17:22:55.613Z,4.67
2019-04-16T17:27:59.384Z,4.37
2019-04-16T17:33:03.302Z,5.40
2019-04-16T17:38:07.730Z,5.73
2019-04-16T17:43:17.253Z,4.53
2019-04-16T17:48:46.198Z,5.00
2019-04-16T17:54:06.654Z,5.10
2019-04-16T17:59:14.519Z,5.33
2019-04-16T18:04:44.573Z,6.13
2019-04-16T18:10:01.502Z,4.80
2019-04-16T18:15:22.256Z,4.47
2019-04-16T18:20:57.300Z,5.57
2019-04-16T18:26:10.270Z,5.23
2019-04-16T18:31:36.384Z,5.40
2019-04-16T18:36:54.382Z,4.73
2019-04-16T18:42:20.170Z,5.70
2019-04-16T18:47:43.026Z,5.20
2019-04-16T18:52:47.570Z,4.83
2019-04-16T18:57:51.503Z,5.07
2019-04-16T19:02:55.517Z,5.00
2019-04-16T19:08:00.824Z,4.77
2019-04-16T19:13:09.708Z,5.27
2019-04-16T19:18:19.732Z,4.70
2019-04-16T19:23:16.958Z,4.77
2019-04-16T19:28:22.700Z,5.30
2019-04-16T19:33:26.528Z,6.20
2019-04-16T19:38:30.434Z,5.50
2019-04-16T19:43:35.583Z,5.57
2019-04-16T19:48:39.961Z,4.80
2019-04-16T19:53:44.607Z,5.53
2019-04-16T19:58:49.529Z,5.37
2019-04-16T20:03:53.523Z,5.30
2019-04-16T20:08:57.313Z,5.53
2019-04-16T20:14:03.074Z,6.67
2019-04-16T20:19:06.876Z,6.47
2019-04-16T20:24:11.942Z,6.43
2019-04-16T20:29:15.814Z,6.47
2019-04-16T20:34:19.666Z,5.67
2019-04-16T20:39:23.723Z,5.93
2019-04-16T20:44:27.660Z,6.37
2019-04-16T20:49:32.860Z,6.17
2019-04-16T20:54:38.211Z,6.10
2019-04-16T20:59:42.242Z,6.10
2019-04-16T21:04:46.316Z,6.33
2019-04-16T21:09:52.012Z,5.93
2019-04-16T21:14:55.980Z,6.77
2019-04-16T21:19:59.895Z,5.90
2019-04-16T21:25:03.915Z,6.67
2019-04-16T21:30:12.741Z,6.10
2019-04-16T21:35:21.539Z,6.40
2019-04-16T21:40:25.413Z,6.90
2019-04-16T21:45:29.900Z,6.70
2019-04-16T21:50:33.979Z,6.37
2019-04-16T21:55:37.857Z,6.90
2019-04-16T22:01:04.272Z,7.03
2019-04-16T22:06:05.477Z,7.73
2019-04-16T22:11:11.757Z,5.30
2019-04-16T22:16:14.766Z,5.57
2019-04-16T22:21:18.556Z,5.60
2019-04-16T22:26:22.243Z,5.23
2019-04-16T22:31:26.118Z,5.30
2019-04-16T22:36:29.895Z,5.07
2019-04-16T22:41:52.283Z,5.60
2019-04-16T22:47:00.431Z,5.03
2019-04-16T22:52:04.623Z,5.57
2019-04-16T22:57:10.837Z,5.33
2019-04-16T23:02:18.869Z,5.63
2019-04-16T23:07:22.558Z,5.60
2019-04-16T23:12:28.097Z,5.80
2019-04-16T23:17:31.632Z,5.27
2019-04-16T23:22:35.359Z,5.60
2019-04-16T23:27:39.068Z,5.47
2019-04-16T23:32:42.917Z,5.57
2019-04-16T23:37:46.988Z,5.63
2019-04-16T23:43:08.391Z,5.87
2019-04-16T23:48:28.587Z,5.27
2019-04-16T23:54:00.662Z,6.07
2019-04-16T23:59:08.662Z,6.33
